createdAt,value
2022-10-04T00:02:21.698Z,99346.16
2022-10-04T00:04:53.853Z,99347.13
2022-10-04T00:07:25.911Z,99346.78
2022-10-04T00:09:57.139Z,99345.13
2022-10-04T00:12:28.235Z,99342.81
2022-10-04T00:15:00.744Z,99345.59
2022-10-04T00:17:31.596Z,99336.94
2022-10-04T00:19:59.659Z,99341.63
2022-10-04T00:22:31.615Z,99340.94
2022-10-04T00:25:20.724Z,99323.41
2022-10-04T00:28:12.855Z,99334.38
2022-10-04T00:30:41.280Z,99332.72
2022-10-04T00:33:09.295Z,99327.22
2022-10-04T00:35:48.312Z,99320.19
2022-10-04T00:38:18.419Z,99319.34
2022-10-04T00:40:49.704Z,99323.28
2022-10-04T00:43:20.997Z,99338.56
2022-10-04T00:45:52.395Z,99339.59
2022-10-04T00:48:35.091Z,99349.25
2022-10-04T00:51:05.946Z,99356.66
2022-10-04T00:53:57.690Z,99358.97
2022-10-04T00:56:30.022Z,99387.06
2022-10-04T00:59:12.055Z,99405.69
2022-10-04T01:01:40.523Z,99396.50
2022-10-04T01:04:14.910Z,99364.44
2022-10-04T01:06:44.044Z,99335.44
2022-10-04T01:09:13.959Z,99306.22
2022-10-04T01:11:45.954Z,99299.31
2022-10-04T01:14:20.863Z,99292.03
2022-10-04T01:16:49.022Z,99295.97
2022-10-04T01:19:25.582Z,99300.28
2022-10-04T01:21:59.043Z,99297.81
2022-10-04T01:24:34.000Z,99310.72
2022-10-04T01:27:02.200Z,99299.91
2022-10-04T01:29:32.204Z,99298.44
2022-10-04T01:32:01.374Z,99307.88
2022-10-04T01:34:30.313Z,99304.69
2022-10-04T01:36:59.892Z,99294.72
2022-10-04T01:39:31.441Z,99290.44
2022-10-04T01:42:04.573Z,99287.38
2022-10-04T01:44:34.181Z,99287.84
2022-10-04T01:47:04.056Z,99275.13
2022-10-04T01:49:35.456Z,99276.88
2022-10-04T01:52:06.547Z,99278.00
2022-10-04T01:54:37.116Z,99264.16
2022-10-04T01:57:08.247Z,99270.97
2022-10-04T01:59:41.007Z,99271.22
2022-10-04T02:02:12.008Z,99268.53
2022-10-04T02:04:52.609Z,99268.38
2022-10-04T02:07:20.887Z,99267.03
2022-10-04T02:09:55.204Z,99266.00
2022-10-04T02:12:23.821Z,99253.03
2022-10-04T02:14:53.843Z,99252.88
2022-10-04T02:17:22.711Z,99257.59
2022-10-04T02:19:51.473Z,99262.44
2022-10-04T02:22:19.988Z,99264.34
2022-10-04T02:24:50.039Z,99262.00
2022-10-04T02:27:19.503Z,99264.16
2022-10-04T02:29:47.582Z,99262.00
2022-10-04T02:32:35.832Z,99260.56
2022-10-04T02:35:04.986Z,99255.66
2022-10-04T02:37:33.791Z,99260.50
2022-10-04T02:40:06.014Z,99259.66
2022-10-04T02:42:39.791Z,99263.09
2022-10-04T02:45:11.068Z,99264.84
2022-10-04T02:47:45.372Z,99271.94
2022-10-04T02:50:22.536Z,99267.59
2022-10-04T02:52:54.628Z,99264.44
2022-10-04T02:55:24.759Z,99271.97
2022-10-04T02:57:55.011Z,99264.25
2022-10-04T03:00:24.551Z,99267.78
2022-10-04T03:03:11.376Z,99263.69
2022-10-04T03:05:39.795Z,99264.00
2022-10-04T03:08:08.445Z,99261.91
2022-10-04T03:10:36.811Z,99259.94
2022-10-04T03:13:06.659Z,99253.31
2022-10-04T03:15:34.810Z,99249.88
2022-10-04T03:18:02.975Z,99242.25
2022-10-04T03:20:31.111Z,99247.13
2022-10-04T03:22:59.172Z,99243.44
2022-10-04T03:25:30.202Z,99236.97
2022-10-04T03:28:01.813Z,99238.13
2022-10-04T03:30:32.226Z,99233.34
2022-10-04T03:33:00.839Z,99234.72
2022-10-04T03:35:34.083Z,99231.56
2022-10-04T03:38:05.879Z,99231.00
2022-10-04T03:40:34.310Z,99232.19
2022-10-04T03:43:03.160Z,99231.59
2022-10-04T03:45:34.347Z,99238.41
2022-10-04T03:48:05.911Z,99239.34
2022-10-04T03:50:35.634Z,99235.09
2022-10-04T03:53:08.254Z,99229.53
2022-10-04T03:55:39.077Z,99224.94
2022-10-04T03:58:10.391Z,99228.09
2022-10-04T04:00:43.108Z,99235.72
2022-10-04T04:03:17.128Z,99231.16
2022-10-04T04:05:48.329Z,99235.56
2022-10-04T04:08:20.592Z,99240.25
2022-10-04T04:10:50.812Z,99238.00
2022-10-04T04:13:23.975Z,99241.97
2022-10-04T04:15:55.273Z,99230.41
2022-10-04T04:18:24.496Z,99235.25
2022-10-04T04:20:53.997Z,99221.63
2022-10-04T04:23:24.395Z,99226.75
2022-10-04T04:25:55.381Z,99220.19
2022-10-04T04:28:26.371Z,99225.28
2022-10-04T04:30:58.067Z,99220.59
2022-10-04T04:33:29.441Z,99218.00
2022-10-04T04:36:04.136Z,99218.19
2022-10-04T04:38:32.615Z,99225.88
2022-10-04T04:41:09.823Z,99222.91
2022-10-04T04:43:43.915Z,99229.25
2022-10-04T04:46:28.380Z,99242.72
2022-10-04T04:49:01.871Z,99246.84
2022-10-04T04:51:31.498Z,99259.38
2022-10-04T04:54:00.218Z,99261.53
2022-10-04T04:56:29.946Z,99265.94
2022-10-04T04:59:01.600Z,99266.34
2022-10-04T05:01:34.455Z,99263.69
2022-10-04T05:04:03.172Z,99264.38
2022-10-04T05:06:32.606Z,99257.97
2022-10-04T05:09:00.614Z,99261.41
2022-10-04T05:11:32.883Z,99255.78
2022-10-04T05:14:02.628Z,99269.13
2022-10-04T05:16:37.815Z,99261.41
2022-10-04T05:19:08.567Z,99259.16
2022-10-04T05:21:40.826Z,99258.38
2022-10-04T05:24:12.233Z,99251.47
2022-10-04T05:26:42.585Z,99264.34
2022-10-04T05:29:13.038Z,99263.13
2022-10-04T05:31:46.617Z,99257.47
2022-10-04T05:34:20.143Z,99252.34
2022-10-04T05:36:53.827Z,99250.84
2022-10-04T05:39:26.053Z,99250.19
2022-10-04T05:41:59.009Z,99254.56
2022-10-04T05:44:27.755Z,99250.28
2022-10-04T05:46:58.077Z,99253.19
2022-10-04T05:49:27.289Z,99251.41
2022-10-04T05:51:56.932Z,99252.75
2022-10-04T05:54:25.829Z,99254.53
2022-10-04T05:57:03.943Z,99252.94
2022-10-04T05:59:41.195Z,99259.72
2022-10-04T06:02:20.150Z,99252.41
2022-10-04T06:05:02.902Z,99245.13
2022-10-04T06:07:36.039Z,99243.47
2022-10-04T06:10:17.044Z,99242.97
2022-10-04T06:12:49.338Z,99246.16
2022-10-04T06:15:24.670Z,99243.97
2022-10-04T06:18:08.978Z,99238.84
2022-10-04T06:20:54.806Z,99234.63
2022-10-04T06:23:24.116Z,99220.47
2022-10-04T06:25:54.791Z,99219.75
2022-10-04T06:28:25.065Z,99224.66
2022-10-04T06:31:05.396Z,99217.13
2022-10-04T06:33:44.049Z,99215.59
2022-10-04T06:36:33.303Z,99212.72
2022-10-04T06:39:07.871Z,99217.06
2022-10-04T06:41:45.702Z,99212.63
2022-10-04T06:44:23.368Z,99213.72
2022-10-04T06:46:52.058Z,99209.72
2022-10-04T06:49:32.937Z,99209.06
2022-10-04T06:52:07.743Z,99224.56
2022-10-04T06:54:43.899Z,99237.25
2022-10-04T06:57:22.991Z,99238.09
2022-10-04T06:59:58.863Z,99244.75
2022-10-04T07:02:29.619Z,99247.44
2022-10-04T07:05:08.540Z,99244.00
2022-10-04T07:07:38.830Z,99249.66
2022-10-04T07:10:19.225Z,99256.25
2022-10-04T07:12:49.801Z,99258.00
2022-10-04T07:15:22.910Z,99262.81
2022-10-04T07:17:52.502Z,99258.41
2022-10-04T07:20:23.997Z,99270.00
2022-10-04T07:22:56.289Z,99262.22
2022-10-04T07:25:27.945Z,99269.19
2022-10-04T07:28:12.001Z,99266.13
2022-10-04T07:30:42.968Z,99273.03
2022-10-04T07:33:15.988Z,99275.53
2022-10-04T07:35:48.788Z,99284.75
2022-10-04T07:38:20.557Z,99293.56
2022-10-04T07:41:00.038Z,99287.25
2022-10-04T07:43:30.687Z,99279.38
2022-10-04T07:46:04.013Z,99274.47
2022-10-04T07:48:32.128Z,99266.38
2022-10-04T07:51:09.261Z,99253.94
2022-10-04T07:53:42.917Z,99246.16
2022-10-04T07:56:12.752Z,99239.97
2022-10-04T07:58:46.453Z,99229.41
2022-10-04T08:01:21.644Z,99233.75
2022-10-04T08:03:58.271Z,99234.25
2022-10-04T08:06:31.523Z,99227.41
2022-10-04T08:09:09.284Z,99214.84
2022-10-04T08:11:45.092Z,99219.22
2022-10-04T08:14:22.974Z,99206.00
2022-10-04T08:16:55.944Z,99209.91
2022-10-04T08:19:33.312Z,99210.84
2022-10-04T08:22:04.911Z,99204.38
2022-10-04T08:24:36.515Z,99208.97
2022-10-04T08:27:14.088Z,99199.59
2022-10-04T08:29:47.904Z,99194.56
2022-10-04T08:32:23.223Z,99209.50
2022-10-04T08:35:02.994Z,99211.22
2022-10-04T08:37:37.094Z,99220.97
2022-10-04T08:40:19.181Z,99218.25
2022-10-04T08:43:04.372Z,99224.53
2022-10-04T08:45:43.716Z,99221.22
2022-10-04T08:48:30.352Z,99216.00
2022-10-04T08:51:16.348Z,99213.97
2022-10-04T08:54:03.928Z,99217.47
2022-10-04T08:56:43.486Z,99221.88
2022-10-04T08:59:20.216Z,99223.28
2022-10-04T09:02:06.809Z,99220.38
2022-10-04T09:04:57.464Z,99223.47
2022-10-04T09:07:38.591Z,99216.25
2022-10-04T09:10:34.516Z,99218.84
2022-10-04T09:13:13.373Z,99209.28
2022-10-04T09:15:59.669Z,99196.97
2022-10-04T09:18:46.040Z,99194.34
2022-10-04T09:21:21.109Z,99188.13
2022-10-04T09:24:09.156Z,99177.91
2022-10-04T09:26:45.355Z,99166.03
2022-10-04T09:29:28.427Z,99171.38
2022-10-04T09:32:11.239Z,99153.59
2022-10-04T09:34:47.030Z,99136.06
2022-10-04T09:37:26.126Z,99131.16
2022-10-04T09:40:21.932Z,99119.78
2022-10-04T09:43:09.355Z,99117.25
2022-10-04T09:45:49.132Z,99105.78
2022-10-04T09:48:26.024Z,99107.78
2022-10-04T09:51:09.363Z,99105.31
2022-10-04T09:53:44.916Z,99112.00
2022-10-04T09:56:26.777Z,99122.56
2022-10-04T09:59:18.466Z,99121.19
2022-10-04T10:01:52.212Z,99106.88
2022-10-04T10:04:24.632Z,99116.69
2022-10-04T10:07:02.192Z,99128.13
2022-10-04T10:09:54.640Z,99123.81
2022-10-04T10:12:53.596Z,99117.84
2022-10-04T10:15:29.502Z,99106.72
2022-10-04T10:18:04.784Z,99117.28
2022-10-04T10:20:50.659Z,99113.97
2022-10-04T10:23:30.349Z,99120.06
2022-10-04T10:26:15.157Z,99113.47
2022-10-04T10:29:02.558Z,99099.63
2022-10-04T10:34:37.564Z,99094.28
2022-10-04T10:37:10.062Z,99090.91
2022-10-04T10:40:02.237Z,99086.31
2022-10-04T10:42:39.987Z,99088.00
2022-10-04T10:45:21.142Z,99096.47
2022-10-04T10:47:53.870Z,99082.41
2022-10-04T10:50:33.883Z,99078.88
2022-10-04T10:53:21.745Z,99078.59
2022-10-04T10:56:27.909Z,99081.16
2022-10-04T10:59:12.863Z,99090.09
2022-10-04T11:01:53.302Z,99094.03
2022-10-04T11:04:39.156Z,99084.03
2022-10-04T11:07:14.033Z,99084.84
2022-10-04T11:09:55.852Z,99082.16
2022-10-04T11:12:52.532Z,99083.16
2022-10-04T11:15:41.256Z,99076.63
2022-10-04T11:18:27.432Z,99071.41
2022-10-04T11:21:16.175Z,99067.69
2022-10-04T11:24:13.778Z,99060.78
2022-10-04T11:26:57.953Z,99069.38
2022-10-04T11:29:39.888Z,99058.22
2022-10-04T11:32:32.303Z,99056.53
2022-10-04T11:35:12.571Z,99048.34
2022-10-04T11:37:47.299Z,99043.94
2022-10-04T11:40:26.915Z,99036.13
2022-10-04T11:43:05.656Z,99036.31
2022-10-04T11:45:39.201Z,99027.44
2022-10-04T11:48:16.784Z,99031.69
2022-10-04T11:50:52.078Z,99027.38
2022-10-04T11:53:39.171Z,99026.53
2022-10-04T11:56:28.539Z,99022.59
2022-10-04T11:59:11.882Z,99017.28
2022-10-04T12:02:02.148Z,99015.13
2022-10-04T12:04:41.424Z,99012.41
2022-10-04T12:07:26.481Z,99011.69
2022-10-04T12:10:01.055Z,99011.00
2022-10-04T12:12:59.646Z,99012.66
2022-10-04T12:15:41.623Z,99009.66
2022-10-04T12:18:34.338Z,99009.41
2022-10-04T12:21:28.976Z,99006.97
2022-10-04T12:24:03.327Z,98998.41
2022-10-04T12:26:43.008Z,99004.41
2022-10-04T12:29:24.115Z,99000.31
2022-10-04T12:31:56.513Z,98999.22
2022-10-04T12:34:28.954Z,99010.66
2022-10-04T12:37:13.666Z,98998.19
2022-10-04T12:39:58.782Z,99003.78
2022-10-04T12:42:34.969Z,98997.38
2022-10-04T12:45:15.878Z,98998.78
2022-10-04T12:47:54.703Z,98985.72
2022-10-04T12:50:28.370Z,98992.03
2022-10-04T12:53:05.050Z,98989.41
2022-10-04T12:55:47.649Z,98976.13
2022-10-04T12:58:21.004Z,98979.25
2022-10-04T13:00:49.933Z,98979.91
2022-10-04T13:03:32.539Z,98991.31
2022-10-04T13:06:06.002Z,98983.66
2022-10-04T13:08:41.346Z,98986.31
2022-10-04T13:11:24.187Z,98989.41
2022-10-04T13:14:07.783Z,98991.03
2022-10-04T13:19:39.032Z,98991.03
2022-10-04T13:22:26.972Z,98984.09
2022-10-04T13:25:11.612Z,98985.97
2022-10-04T13:27:45.567Z,98983.75
2022-10-04T13:30:17.906Z,98979.25
2022-10-04T13:32:52.555Z,98978.44
2022-10-04T13:35:25.150Z,98972.16
2022-10-04T13:38:06.569Z,98979.13
2022-10-04T13:40:38.898Z,98973.41
2022-10-04T13:43:20.481Z,98971.09
2022-10-04T13:45:57.525Z,98976.50
2022-10-04T13:48:34.728Z,98975.72
2022-10-04T13:51:14.010Z,98977.19
2022-10-04T13:54:06.883Z,98972.16
2022-10-04T13:56:54.811Z,98978.88
2022-10-04T13:59:30.825Z,98948.19
2022-10-04T14:02:16.692Z,98970.53
2022-10-04T14:05:05.837Z,98966.69
2022-10-04T14:07:45.225Z,98961.09
2022-10-04T14:10:30.911Z,98974.19
2022-10-04T14:13:19.175Z,98963.34
2022-10-04T14:15:52.538Z,98960.47
2022-10-04T14:18:41.677Z,98951.31
2022-10-04T14:21:36.222Z,98956.94
2022-10-04T14:24:17.494Z,98966.50
2022-10-04T14:27:11.451Z,98953.81
2022-10-04T14:29:58.188Z,98953.09
2022-10-04T14:32:52.021Z,98947.66
2022-10-04T14:35:23.398Z,98946.53
2022-10-04T14:38:08.727Z,98946.09
2022-10-04T14:40:45.819Z,98944.50
2022-10-04T14:43:31.674Z,98936.84
2022-10-04T14:46:08.334Z,98943.13
2022-10-04T14:49:02.345Z,98944.22
2022-10-04T14:51:40.784Z,98940.28
2022-10-04T14:54:11.241Z,98931.47
2022-10-04T14:56:52.212Z,98934.88
2022-10-04T14:59:30.544Z,98932.75
2022-10-04T15:02:22.608Z,98933.88
2022-10-04T15:05:08.704Z,98927.78
2022-10-04T15:07:38.490Z,98928.63
2022-10-04T15:10:11.949Z,98920.91
2022-10-04T15:15:37.547Z,98923.16
2022-10-04T15:18:12.819Z,98903.16
2022-10-04T15:20:51.681Z,98919.66
2022-10-04T15:23:27.639Z,98919.81
2022-10-04T15:25:57.998Z,98921.22
2022-10-04T15:28:35.086Z,98928.97
2022-10-04T15:31:07.017Z,98920.59
2022-10-04T15:33:40.062Z,98920.53
2022-10-04T15:36:18.049Z,98918.75
2022-10-04T15:38:50.650Z,98921.66
2022-10-04T15:41:19.887Z,98923.75
2022-10-04T15:44:11.644Z,98918.81
2022-10-04T15:46:44.945Z,98919.59
2022-10-04T15:49:43.453Z,98915.97
2022-10-04T15:52:16.010Z,98913.22
2022-10-04T15:55:03.347Z,98904.19
2022-10-04T15:57:36.825Z,98908.19
2022-10-04T16:00:13.305Z,98903.97
2022-10-04T16:02:58.980Z,98898.13
2022-10-04T16:05:32.403Z,98901.44
2022-10-04T16:08:06.346Z,98892.16
2022-10-04T16:10:52.876Z,98896.56
2022-10-04T16:13:28.371Z,98885.09
2022-10-04T16:16:26.168Z,98891.19
2022-10-04T16:19:02.229Z,98888.53
2022-10-04T16:21:32.787Z,98887.19
2022-10-04T16:24:19.501Z,98893.53
2022-10-04T16:27:17.654Z,98891.66
2022-10-04T16:30:08.240Z,98890.50
2022-10-04T16:32:47.304Z,98885.66
2022-10-04T16:35:18.212Z,98896.69
2022-10-04T16:37:55.912Z,98893.66
2022-10-04T16:40:31.652Z,98898.19
2022-10-04T16:43:03.842Z,98901.50
2022-10-04T16:45:36.196Z,98905.97
2022-10-04T16:48:13.116Z,98903.81
2022-10-04T16:51:02.179Z,98914.56
2022-10-04T16:53:43.733Z,98911.22
2022-10-04T16:56:16.424Z,98912.38
2022-10-04T16:58:49.799Z,98923.78
2022-10-04T17:01:36.519Z,98921.47
2022-10-04T17:04:11.264Z,98915.69
2022-10-04T17:06:46.027Z,98913.88
2022-10-04T17:09:19.798Z,98912.47
2022-10-04T17:11:57.667Z,98914.22
2022-10-04T17:14:50.723Z,98915.13
2022-10-04T17:17:23.623Z,98915.22
2022-10-04T17:19:55.444Z,98904.22
2022-10-04T17:22:29.860Z,98907.34
2022-10-04T17:25:02.468Z,98902.13
2022-10-04T17:27:45.848Z,98893.19
2022-10-04T17:30:18.213Z,98894.56
2022-10-04T17:32:54.144Z,98894.81
2022-10-04T17:35:54.535Z,98898.88
2022-10-04T17:38:26.124Z,98891.91
2022-10-04T17:40:59.237Z,98887.31
2022-10-04T17:43:31.195Z,98882.09
2022-10-04T17:46:10.662Z,98885.44
2022-10-04T17:49:00.829Z,98882.78
2022-10-04T17:51:52.370Z,98886.75
2022-10-04T17:54:40.640Z,98899.88
2022-10-04T17:57:16.452Z,98912.78
2022-10-04T17:59:46.132Z,98898.06
2022-10-04T18:02:21.692Z,98885.59
2022-10-04T18:04:54.489Z,98888.78
2022-10-04T18:07:25.935Z,98891.25
2022-10-04T18:09:55.989Z,98894.22
2022-10-04T18:12:27.235Z,98896.53
2022-10-04T18:15:03.999Z,98902.50
2022-10-04T18:17:59.953Z,98911.13
2022-10-04T18:20:28.212Z,98910.09
2022-10-04T18:23:01.843Z,98914.91
2022-10-04T18:25:31.186Z,98908.41
2022-10-04T18:28:04.511Z,98914.69
2022-10-04T18:30:35.726Z,98921.41
2022-10-04T18:33:06.363Z,98923.91
2022-10-04T18:35:34.570Z,98924.97
2022-10-04T18:38:20.901Z,98930.34
2022-10-04T18:40:55.192Z,98935.56
2022-10-04T18:43:27.796Z,98933.91
2022-10-04T18:46:02.217Z,98931.78
2022-10-04T18:48:38.099Z,98940.00
2022-10-04T18:51:23.987Z,98936.06
2022-10-04T18:54:02.367Z,98941.38
2022-10-04T18:56:34.132Z,98943.03
2022-10-04T18:59:23.780Z,98940.00
2022-10-04T19:02:02.673Z,98943.75
2022-10-04T19:04:36.079Z,98958.03
2022-10-04T19:07:08.176Z,98977.16
2022-10-04T19:09:45.991Z,98971.22
2022-10-04T19:12:17.205Z,98973.69
2022-10-04T19:14:49.398Z,98981.75
2022-10-04T19:17:22.231Z,98987.69
2022-10-04T19:19:57.013Z,98972.09
2022-10-04T19:22:33.487Z,98976.69
2022-10-04T19:25:16.466Z,98978.34
2022-10-04T19:27:49.850Z,98990.63
2022-10-04T19:30:20.580Z,98990.22
2022-10-04T19:33:00.457Z,99002.19
2022-10-04T19:35:37.466Z,99010.94
2022-10-04T19:38:12.575Z,99016.19
2022-10-04T19:40:48.433Z,99021.22
2022-10-04T19:43:21.822Z,99031.38
2022-10-04T19:46:05.205Z,99035.16
2022-10-04T19:48:37.958Z,99030.09
2022-10-04T19:51:09.091Z,99038.84
2022-10-04T19:53:42.021Z,99033.00
2022-10-04T19:56:17.395Z,99038.88
2022-10-04T19:58:47.540Z,99045.28
2022-10-04T20:01:16.600Z,99047.38
2022-10-04T20:03:45.634Z,99057.88
2022-10-04T20:06:21.292Z,99062.00
2022-10-04T20:08:50.934Z,99072.00
2022-10-04T20:11:22.797Z,99071.59
2022-10-04T20:14:08.791Z,99074.47
2022-10-04T20:16:57.813Z,99071.50
2022-10-04T20:19:38.666Z,99064.97
2022-10-04T20:22:25.516Z,99071.53
2022-10-04T20:24:53.613Z,99076.72
2022-10-04T20:27:37.168Z,99091.41
2022-10-04T20:30:14.201Z,99103.59
2022-10-04T20:32:57.339Z,99097.09
2022-10-04T20:35:44.169Z,99110.09
2022-10-04T20:38:31.642Z,99119.56
2022-10-04T20:41:00.455Z,99126.81
2022-10-04T20:43:28.505Z,99133.50
2022-10-04T20:45:58.685Z,99137.00
2022-10-04T20:48:31.378Z,99141.56
2022-10-04T20:51:08.796Z,99143.28
2022-10-04T20:53:36.956Z,99135.19
2022-10-04T20:56:12.863Z,99140.59
2022-10-04T20:58:41.343Z,99146.16
2022-10-04T21:01:40.023Z,99150.94
2022-10-04T21:04:15.171Z,99151.84
2022-10-04T21:06:52.890Z,99148.38
2022-10-04T21:09:23.613Z,99157.00
2022-10-04T21:11:52.168Z,99155.50
2022-10-04T21:14:23.955Z,99161.75
2022-10-04T21:16:56.516Z,99164.06
2022-10-04T21:19:50.150Z,99100.91
2022-10-04T21:22:36.459Z,99159.69
2022-10-04T21:25:06.410Z,99158.25
2022-10-04T21:27:35.431Z,99166.75
2022-10-04T21:30:04.296Z,99164.09
2022-10-04T21:32:36.756Z,99151.81
2022-10-04T21:35:05.774Z,99163.25
2022-10-04T21:37:34.436Z,99167.00
2022-10-04T21:40:02.663Z,99169.06
2022-10-04T21:42:30.697Z,99167.59
2022-10-04T21:44:58.720Z,99180.66
2022-10-04T21:47:26.740Z,99187.94
2022-10-04T21:49:56.063Z,99183.97
2022-10-04T21:52:24.055Z,99186.28
2022-10-04T21:54:52.019Z,99177.13
2022-10-04T21:57:20.013Z,99176.72
2022-10-04T22:02:37.408Z,99144.72
2022-10-04T22:05:05.783Z,99146.22
2022-10-04T22:07:33.753Z,99153.06
2022-10-04T22:10:01.733Z,99143.25
2022-10-04T22:12:31.787Z,99138.72
2022-10-04T22:14:59.764Z,99140.56
2022-10-04T22:17:27.781Z,99138.06
2022-10-04T22:19:57.088Z,99138.91
2022-10-04T22:22:25.094Z,99125.16
2022-10-04T22:24:53.074Z,99122.22
2022-10-04T22:27:21.063Z,99121.84
2022-10-04T22:29:49.121Z,99128.69
2022-10-04T22:32:22.583Z,99136.81
2022-10-04T22:34:51.274Z,99138.66
2022-10-04T22:37:23.068Z,99133.50
2022-10-04T22:39:51.146Z,99139.09
2022-10-04T22:42:19.386Z,99142.22
2022-10-04T22:44:47.386Z,99137.03
2022-10-04T22:47:16.676Z,99142.22
2022-10-04T22:49:45.742Z,99133.47
2022-10-04T22:52:14.867Z,99146.16
2022-10-04T22:54:45.763Z,99139.72
2022-10-04T22:57:15.213Z,99140.94
2022-10-04T22:59:44.307Z,99135.25
2022-10-04T23:02:15.914Z,99139.19
2022-10-04T23:04:45.393Z,99143.16
2022-10-04T23:07:13.498Z,99139.59
2022-10-04T23:09:41.461Z,99137.91
2022-10-04T23:12:10.763Z,99127.09
2022-10-04T23:14:39.069Z,99125.25
2022-10-04T23:17:22.823Z,99139.50
2022-10-04T23:19:51.054Z,99137.78
2022-10-04T23:22:21.679Z,99138.31
2022-10-04T23:24:49.664Z,99128.56
2022-10-04T23:27:18.936Z,99137.47
2022-10-04T23:29:47.427Z,99141.38
2022-10-04T23:32:18.575Z,99143.13
2022-10-04T23:34:47.476Z,99134.50
2022-10-04T23:37:17.028Z,99128.25
2022-10-04T23:39:45.518Z,99137.56
2022-10-04T23:42:17.140Z,99124.38
2022-10-04T23:44:47.856Z,99123.13
2022-10-04T23:47:16.833Z,99126.03
2022-10-04T23:49:45.580Z,99125.91
2022-10-04T23:52:17.700Z,99127.72
2022-10-04T23:54:45.762Z,99126.72
2022-10-04T23:57:18.838Z,99130.94
2022-10-04T23:59:48.568Z,99135.28
